sensor_id;sensor_type;location;lat;lon;timestamp;P1;durP1;ratioP1;P2;durP2;ratioP2
66139;SDS011;52945;51.908;8.364;2022-10-28T00:00:23;5.10;;;2.90;;
66139;SDS011;52945;51.908;8.364;2022-10-28T00:03:23;7.38;;;3.38;;
66139;SDS011;52945;51.908;8.364;2022-10-28T00:06:26;7.88;;;3.50;;
66139;SDS011;52945;51.908;8.364;2022-10-28T00:09:29;6.60;;;3.00;;
66139;SDS011;52945;51.908;8.364;2022-10-28T00:15:30;4.60;;;2.40;;
66139;SDS011;52945;51.908;8.364;2022-10-28T00:18:33;4.72;;;2.47;;
66139;SDS011;52945;51.908;8.364;2022-10-28T00:24:36;9.20;;;2.58;;
66139;SDS011;52945;51.908;8.364;2022-10-28T00:30:37;4.78;;;2.28;;
66139;SDS011;52945;51.908;8.364;2022-10-28T00:36:39;3.05;;;2.35;;
66139;SDS011;52945;51.908;8.364;2022-10-28T00:39:41;5.38;;;2.90;;
66139;SDS011;52945;51.908;8.364;2022-10-28T00:45:42;3.78;;;2.20;;
66139;SDS011;52945;51.908;8.364;2022-10-28T00:51:45;4.07;;;2.40;;
66139;SDS011;52945;51.908;8.364;2022-10-28T00:54:49;7.00;;;2.50;;
66139;SDS011;52945;51.908;8.364;2022-10-28T00:57:51;4.40;;;2.70;;
66139;SDS011;52945;51.908;8.364;2022-10-28T01:00:56;8.88;;;3.05;;
66139;SDS011;52945;51.908;8.364;2022-10-28T01:06:58;6.05;;;3.10;;
66139;SDS011;52945;51.908;8.364;2022-10-28T01:10:00;5.57;;;2.83;;
66139;SDS011;52945;51.908;8.364;2022-10-28T01:16:16;5.15;;;2.28;;
66139;SDS011;52945;51.908;8.364;2022-10-28T01:32:08;6.00;;;2.45;;
66139;SDS011;52945;51.908;8.364;2022-10-28T01:35:32;9.27;;;2.50;;
66139;SDS011;52945;51.908;8.364;2022-10-28T01:38:42;7.10;;;2.67;;
66139;SDS011;52945;51.908;8.364;2022-10-28T01:41:51;4.10;;;2.30;;
66139;SDS011;52945;51.908;8.364;2022-10-28T01:45:02;6.22;;;2.40;;
66139;SDS011;52945;51.908;8.364;2022-10-28T01:48:17;6.13;;;2.63;;
66139;SDS011;52945;51.908;8.364;2022-10-28T01:51:25;8.13;;;2.70;;
66139;SDS011;52945;51.908;8.364;2022-10-28T01:54:36;4.22;;;2.38;;
66139;SDS011;52945;51.908;8.364;2022-10-28T01:57:39;4.03;;;2.33;;
66139;SDS011;52945;51.908;8.364;2022-10-28T02:00:42;7.68;;;2.78;;
66139;SDS011;52945;51.908;8.364;2022-10-28T02:03:44;4.50;;;2.53;;
66139;SDS011;52945;51.908;8.364;2022-10-28T02:06:48;4.15;;;2.20;;
66139;SDS011;52945;51.908;8.364;2022-10-28T02:13:02;5.75;;;2.10;;
66139;SDS011;52945;51.908;8.364;2022-10-28T02:22:42;4.03;;;2.50;;
66139;SDS011;52945;51.908;8.364;2022-10-28T02:26:04;9.25;;;2.35;;
66139;SDS011;52945;51.908;8.364;2022-10-28T02:29:14;4.97;;;2.38;;
66139;SDS011;52945;51.908;8.364;2022-10-28T02:32:23;5.00;;;2.00;;
66139;SDS011;52945;51.908;8.364;2022-10-28T02:35:30;6.20;;;2.40;;
66139;SDS011;52945;51.908;8.364;2022-10-28T02:38:43;3.70;;;2.20;;
66139;SDS011;52945;51.908;8.364;2022-10-28T02:41:49;5.55;;;2.38;;
66139;SDS011;52945;51.908;8.364;2022-10-28T02:44:57;3.67;;;2.13;;
66139;SDS011;52945;51.908;8.364;2022-10-28T02:48:01;6.05;;;2.30;;
66139;SDS011;52945;51.908;8.364;2022-10-28T02:51:10;7.38;;;2.70;;
66139;SDS011;52945;51.908;8.364;2022-10-28T02:54:16;7.38;;;2.33;;
66139;SDS011;52945;51.908;8.364;2022-10-28T02:57:25;6.85;;;2.30;;
66139;SDS011;52945;51.908;8.364;2022-10-28T03:00:29;3.10;;;2.08;;
66139;SDS011;52945;51.908;8.364;2022-10-28T03:06:30;3.88;;;2.22;;
66139;SDS011;52945;51.908;8.364;2022-10-28T03:09:30;7.10;;;2.45;;
66139;SDS011;52945;51.908;8.364;2022-10-28T03:15:32;6.25;;;2.58;;
66139;SDS011;52945;51.908;8.364;2022-10-28T03:21:33;6.28;;;2.75;;
66139;SDS011;52945;51.908;8.364;2022-10-28T03:27:34;5.28;;;2.10;;
66139;SDS011;52945;51.908;8.364;2022-10-28T03:33:35;10.35;;;2.40;;
66139;SDS011;52945;51.908;8.364;2022-10-28T03:39:36;4.10;;;2.10;;
66139;SDS011;52945;51.908;8.364;2022-10-28T03:45:39;7.57;;;2.20;;
66139;SDS011;52945;51.908;8.364;2022-10-28T03:51:40;8.35;;;2.47;;
66139;SDS011;52945;51.908;8.364;2022-10-28T03:57:41;5.30;;;2.40;;
66139;SDS011;52945;51.908;8.364;2022-10-28T04:03:42;6.78;;;2.00;;
66139;SDS011;52945;51.908;8.364;2022-10-28T04:09:43;3.60;;;2.20;;
66139;SDS011;52945;51.908;8.364;2022-10-28T04:12:44;7.50;;;2.53;;
66139;SDS011;52945;51.908;8.364;2022-10-28T04:18:45;5.50;;;2.67;;
66139;SDS011;52945;51.908;8.364;2022-10-28T04:24:46;5.50;;;2.17;;
66139;SDS011;52945;51.908;8.364;2022-10-28T04:30:47;5.85;;;2.38;;
66139;SDS011;52945;51.908;8.364;2022-10-28T04:36:48;8.60;;;2.40;;
66139;SDS011;52945;51.908;8.364;2022-10-28T04:42:49;5.57;;;2.30;;
66139;SDS011;52945;51.908;8.364;2022-10-28T04:45:51;5.38;;;2.42;;
66139;SDS011;52945;51.908;8.364;2022-10-28T04:51:52;4.50;;;2.10;;
66139;SDS011;52945;51.908;8.364;2022-10-28T04:57:53;5.50;;;1.80;;
66139;SDS011;52945;51.908;8.364;2022-10-28T05:00:54;6.88;;;2.55;;
66139;SDS011;52945;51.908;8.364;2022-10-28T05:06:55;9.55;;;2.20;;
66139;SDS011;52945;51.908;8.364;2022-10-28T05:12:56;3.08;;;1.98;;
66139;SDS011;52945;51.908;8.364;2022-10-28T05:18:57;4.32;;;2.33;;
66139;SDS011;52945;51.908;8.364;2022-10-28T05:21:58;8.15;;;2.75;;
66139;SDS011;52945;51.908;8.364;2022-10-28T05:27:59;5.10;;;2.47;;
66139;SDS011;52945;51.908;8.364;2022-10-28T05:34:01;6.30;;;2.10;;
66139;SDS011;52945;51.908;8.364;2022-10-28T05:40:02;8.45;;;3.15;;
66139;SDS011;52945;51.908;8.364;2022-10-28T05:43:03;7.88;;;2.67;;
66139;SDS011;52945;51.908;8.364;2022-10-28T05:49:04;4.35;;;2.17;;
66139;SDS011;52945;51.908;8.364;2022-10-28T05:55:05;3.63;;;2.42;;
66139;SDS011;52945;51.908;8.364;2022-10-28T06:01:06;6.20;;;2.42;;
66139;SDS011;52945;51.908;8.364;2022-10-28T06:04:07;6.50;;;3.03;;
66139;SDS011;52945;51.908;8.364;2022-10-28T06:10:09;5.90;;;2.60;;
66139;SDS011;52945;51.908;8.364;2022-10-28T06:13:10;7.38;;;2.30;;
66139;SDS011;52945;51.908;8.364;2022-10-28T06:19:11;6.32;;;2.53;;
66139;SDS011;52945;51.908;8.364;2022-10-28T06:25:12;4.63;;;2.35;;
66139;SDS011;52945;51.908;8.364;2022-10-28T06:31:13;6.30;;;2.67;;
66139;SDS011;52945;51.908;8.364;2022-10-28T06:34:14;6.53;;;2.60;;
66139;SDS011;52945;51.908;8.364;2022-10-28T06:40:15;7.05;;;2.45;;
66139;SDS011;52945;51.908;8.364;2022-10-28T06:46:16;8.70;;;3.40;;
66139;SDS011;52945;51.908;8.364;2022-10-28T06:52:17;10.20;;;3.00;;
66139;SDS011;52945;51.908;8.364;2022-10-28T06:58:18;7.68;;;2.80;;
66139;SDS011;52945;51.908;8.364;2022-10-28T07:04:20;9.60;;;3.03;;
66139;SDS011;52945;51.908;8.364;2022-10-28T07:10:21;5.85;;;2.75;;
66139;SDS011;52945;51.908;8.364;2022-10-28T07:16:23;6.03;;;2.50;;
66139;SDS011;52945;51.908;8.364;2022-10-28T07:22:24;7.40;;;2.83;;
66139;SDS011;52945;51.908;8.364;2022-10-28T07:28:29;9.02;;;3.03;;
66139;SDS011;52945;51.908;8.364;2022-10-28T07:34:30;5.22;;;2.75;;
66139;SDS011;52945;51.908;8.364;2022-10-28T07:40:31;9.60;;;2.90;;
66139;SDS011;52945;51.908;8.364;2022-10-28T07:43:35;5.75;;;2.75;;
66139;SDS011;52945;51.908;8.364;2022-10-28T07:46:36;7.30;;;2.63;;
66139;SDS011;52945;51.908;8.364;2022-10-28T07:52:38;6.72;;;2.70;;
66139;SDS011;52945;51.908;8.364;2022-10-28T07:55:38;8.10;;;2.75;;
66139;SDS011;52945;51.908;8.364;2022-10-28T08:01:40;8.18;;;2.80;;
66139;SDS011;52945;51.908;8.364;2022-10-28T08:07:41;9.05;;;3.40;;
66139;SDS011;52945;51.908;8.364;2022-10-28T08:10:42;7.70;;;3.00;;
66139;SDS011;52945;51.908;8.364;2022-10-28T08:16:44;4.68;;;2.45;;
66139;SDS011;52945;51.908;8.364;2022-10-28T08:19:45;4.22;;;2.47;;
66139;SDS011;52945;51.908;8.364;2022-10-28T08:25:47;7.03;;;2.30;;
66139;SDS011;52945;51.908;8.364;2022-10-28T08:28:48;8.95;;;2.25;;
66139;SDS011;52945;51.908;8.364;2022-10-28T08:31:49;7.72;;;2.20;;
66139;SDS011;52945;51.908;8.364;2022-10-28T08:34:49;5.63;;;2.53;;
66139;SDS011;52945;51.908;8.364;2022-10-28T08:37:50;6.10;;;2.30;;
66139;SDS011;52945;51.908;8.364;2022-10-28T08:41:01;6.18;;;2.25;;
66139;SDS011;52945;51.908;8.364;2022-10-28T08:50:53;7.90;;;3.13;;
66139;SDS011;52945;51.908;8.364;2022-10-28T08:54:02;3.65;;;2.55;;
66139;SDS011;52945;51.908;8.364;2022-10-28T08:57:06;7.75;;;1.98;;
66139;SDS011;52945;51.908;8.364;2022-10-28T09:00:19;8.05;;;2.25;;
66139;SDS011;52945;51.908;8.364;2022-10-28T09:03:24;3.28;;;1.95;;
66139;SDS011;52945;51.908;8.364;2022-10-28T09:06:26;5.90;;;2.15;;
66139;SDS011;52945;51.908;8.364;2022-10-28T09:09:29;6.75;;;2.08;;
66139;SDS011;52945;51.908;8.364;2022-10-28T09:15:53;7.22;;;2.60;;
66139;SDS011;52945;51.908;8.364;2022-10-28T09:19:19;6.97;;;2.20;;
66139;SDS011;52945;51.908;8.364;2022-10-28T09:25:26;4.35;;;2.13;;
66139;SDS011;52945;51.908;8.364;2022-10-28T09:35:39;5.18;;;2.30;;
66139;SDS011;52945;51.908;8.364;2022-10-28T09:38:42;7.82;;;2.35;;
66139;SDS011;52945;51.908;8.364;2022-10-28T09:41:43;6.28;;;2.30;;
66139;SDS011;52945;51.908;8.364;2022-10-28T09:44:50;3.97;;;2.00;;
66139;SDS011;52945;51.908;8.364;2022-10-28T09:48:04;7.78;;;2.35;;
66139;SDS011;52945;51.908;8.364;2022-10-28T09:54:40;5.22;;;2.17;;
66139;SDS011;52945;51.908;8.364;2022-10-28T09:57:47;9.57;;;2.10;;
66139;SDS011;52945;51.908;8.364;2022-10-28T10:00:48;6.53;;;2.85;;
66139;SDS011;52945;51.908;8.364;2022-10-28T10:03:49;5.43;;;2.30;;
66139;SDS011;52945;51.908;8.364;2022-10-28T10:06:58;6.85;;;2.38;;
66139;SDS011;52945;51.908;8.364;2022-10-28T10:10:12;6.35;;;2.55;;
66139;SDS011;52945;51.908;8.364;2022-10-28T10:13:26;5.75;;;2.22;;
66139;SDS011;52945;51.908;8.364;2022-10-28T10:23:20;8.43;;;2.42;;
66139;SDS011;52945;51.908;8.364;2022-10-28T10:26:27;4.07;;;2.38;;
66139;SDS011;52945;51.908;8.364;2022-10-28T10:29:32;8.20;;;2.85;;
66139;SDS011;52945;51.908;8.364;2022-10-28T10:32:34;6.43;;;2.70;;
66139;SDS011;52945;51.908;8.364;2022-10-28T10:35:35;3.17;;;1.92;;
66139;SDS011;52945;51.908;8.364;2022-10-28T10:38:38;4.15;;;2.15;;
66139;SDS011;52945;51.908;8.364;2022-10-28T10:41:55;8.85;;;2.50;;
66139;SDS011;52945;51.908;8.364;2022-10-28T10:44:58;5.75;;;2.30;;
66139;SDS011;52945;51.908;8.364;2022-10-28T10:48:11;5.00;;;2.10;;
66139;SDS011;52945;51.908;8.364;2022-10-28T10:51:17;6.22;;;1.95;;
66139;SDS011;52945;51.908;8.364;2022-10-28T10:54:25;7.53;;;2.55;;
66139;SDS011;52945;51.908;8.364;2022-10-28T10:57:28;8.85;;;2.97;;
66139;SDS011;52945;51.908;8.364;2022-10-28T11:00:36;2.92;;;1.95;;
66139;SDS011;52945;51.908;8.364;2022-10-28T11:03:47;11.32;;;2.40;;
66139;SDS011;52945;51.908;8.364;2022-10-28T11:06:57;6.95;;;2.70;;
66139;SDS011;52945;51.908;8.364;2022-10-28T11:09:58;9.73;;;2.50;;
66139;SDS011;52945;51.908;8.364;2022-10-28T11:13:02;7.97;;;3.00;;
66139;SDS011;52945;51.908;8.364;2022-10-28T11:16:26;5.25;;;2.38;;
66139;SDS011;52945;51.908;8.364;2022-10-28T11:22:46;4.78;;;2.25;;
66139;SDS011;52945;51.908;8.364;2022-10-28T11:25:56;6.45;;;2.25;;
66139;SDS011;52945;51.908;8.364;2022-10-28T11:36:19;8.23;;;2.05;;
66139;SDS011;52945;51.908;8.364;2022-10-28T11:45:30;8.10;;;2.55;;
66139;SDS011;52945;51.908;8.364;2022-10-28T11:51:45;4.55;;;1.95;;
66139;SDS011;52945;51.908;8.364;2022-10-28T11:55:10;6.13;;;2.60;;
66139;SDS011;52945;51.908;8.364;2022-10-28T12:24:21;6.13;;;2.63;;
66139;SDS011;52945;51.908;8.364;2022-10-28T12:27:27;7.72;;;2.20;;
66139;SDS011;52945;51.908;8.364;2022-10-28T12:30:32;5.22;;;2.00;;
66139;SDS011;52945;51.908;8.364;2022-10-28T12:33:41;6.93;;;2.00;;
66139;SDS011;52945;51.908;8.364;2022-10-28T12:36:47;5.65;;;2.50;;
66139;SDS011;52945;51.908;8.364;2022-10-28T12:39:59;10.68;;;2.70;;
66139;SDS011;52945;51.908;8.364;2022-10-28T12:43:21;7.28;;;2.25;;
66139;SDS011;52945;51.908;8.364;2022-10-28T12:57:18;7.15;;;2.28;;
66139;SDS011;52945;51.908;8.364;2022-10-28T13:00:22;9.02;;;2.35;;
66139;SDS011;52945;51.908;8.364;2022-10-28T13:03:28;7.03;;;2.15;;
66139;SDS011;52945;51.908;8.364;2022-10-28T13:10:08;6.10;;;2.45;;
66139;SDS011;52945;51.908;8.364;2022-10-28T13:20:06;7.55;;;2.03;;
66139;SDS011;52945;51.908;8.364;2022-10-28T13:26:26;5.57;;;1.92;;
66139;SDS011;52945;51.908;8.364;2022-10-28T13:29:31;4.28;;;1.88;;
66139;SDS011;52945;51.908;8.364;2022-10-28T13:32:37;5.85;;;2.00;;
66139;SDS011;52945;51.908;8.364;2022-10-28T13:35:39;8.00;;;1.80;;
66139;SDS011;52945;51.908;8.364;2022-10-28T13:38:40;5.70;;;2.00;;
66139;SDS011;52945;51.908;8.364;2022-10-28T13:41:41;8.63;;;2.22;;
66139;SDS011;52945;51.908;8.364;2022-10-28T13:47:48;8.45;;;2.45;;
66139;SDS011;52945;51.908;8.364;2022-10-28T13:50:49;4.57;;;1.88;;
66139;SDS011;52945;51.908;8.364;2022-10-28T13:56:59;8.80;;;2.60;;
66139;SDS011;52945;51.908;8.364;2022-10-28T14:03:22;5.35;;;2.00;;
66139;SDS011;52945;51.908;8.364;2022-10-28T14:06:31;4.00;;;1.92;;
66139;SDS011;52945;51.908;8.364;2022-10-28T14:09:33;5.45;;;2.30;;
66139;SDS011;52945;51.908;8.364;2022-10-28T14:12:35;8.25;;;2.40;;
66139;SDS011;52945;51.908;8.364;2022-10-28T14:15:42;8.32;;;2.30;;
66139;SDS011;52945;51.908;8.364;2022-10-28T14:18:51;10.13;;;2.53;;
66139;SDS011;52945;51.908;8.364;2022-10-28T14:22:02;4.43;;;2.72;;
66139;SDS011;52945;51.908;8.364;2022-10-28T14:31:43;10.65;;;2.70;;
66139;SDS011;52945;51.908;8.364;2022-10-28T14:34:44;7.72;;;2.58;;
66139;SDS011;52945;51.908;8.364;2022-10-28T14:51:07;7.75;;;2.55;;
66139;SDS011;52945;51.908;8.364;2022-10-28T14:54:14;9.15;;;3.30;;
66139;SDS011;52945;51.908;8.364;2022-10-28T14:57:17;9.73;;;3.53;;
66139;SDS011;52945;51.908;8.364;2022-10-28T15:00:22;7.60;;;3.15;;
66139;SDS011;52945;51.908;8.364;2022-10-28T15:03:24;8.82;;;2.95;;
66139;SDS011;52945;51.908;8.364;2022-10-28T15:09:30;8.38;;;2.90;;
66139;SDS011;52945;51.908;8.364;2022-10-28T15:12:33;6.40;;;2.30;;
66139;SDS011;52945;51.908;8.364;2022-10-28T15:15:35;10.20;;;3.22;;
66139;SDS011;52945;51.908;8.364;2022-10-28T15:18:35;9.13;;;2.80;;
66139;SDS011;52945;51.908;8.364;2022-10-28T15:25:12;6.22;;;2.60;;
66139;SDS011;52945;51.908;8.364;2022-10-28T15:28:14;5.30;;;2.35;;
66139;SDS011;52945;51.908;8.364;2022-10-28T15:31:15;9.45;;;2.50;;
66139;SDS011;52945;51.908;8.364;2022-10-28T15:34:19;5.53;;;2.13;;
66139;SDS011;52945;51.908;8.364;2022-10-28T15:37:21;12.02;;;2.90;;
66139;SDS011;52945;51.908;8.364;2022-10-28T15:43:33;8.00;;;2.70;;
66139;SDS011;52945;51.908;8.364;2022-10-28T15:46:35;10.77;;;2.28;;
66139;SDS011;52945;51.908;8.364;2022-10-28T15:49:37;6.13;;;2.30;;
66139;SDS011;52945;51.908;8.364;2022-10-28T15:52:40;4.75;;;2.00;;
66139;SDS011;52945;51.908;8.364;2022-10-28T15:55:44;8.43;;;2.42;;
66139;SDS011;52945;51.908;8.364;2022-10-28T15:58:48;5.63;;;2.20;;
66139;SDS011;52945;51.908;8.364;2022-10-28T16:02:30;8.98;;;2.50;;
66139;SDS011;52945;51.908;8.364;2022-10-28T16:05:42;6.35;;;2.10;;
66139;SDS011;52945;51.908;8.364;2022-10-28T16:08:44;7.80;;;2.60;;
66139;SDS011;52945;51.908;8.364;2022-10-28T16:11:46;5.82;;;1.85;;
66139;SDS011;52945;51.908;8.364;2022-10-28T16:14:52;9.00;;;2.13;;
66139;SDS011;52945;51.908;8.364;2022-10-28T16:17:55;6.70;;;2.20;;
66139;SDS011;52945;51.908;8.364;2022-10-28T16:20:57;6.22;;;2.17;;
66139;SDS011;52945;51.908;8.364;2022-10-28T16:23:59;8.85;;;2.63;;
66139;SDS011;52945;51.908;8.364;2022-10-28T16:27:15;6.63;;;2.22;;
66139;SDS011;52945;51.908;8.364;2022-10-28T16:30:18;7.07;;;2.35;;
66139;SDS011;52945;51.908;8.364;2022-10-28T16:33:19;7.18;;;1.98;;
66139;SDS011;52945;51.908;8.364;2022-10-28T16:36:27;6.90;;;2.30;;
66139;SDS011;52945;51.908;8.364;2022-10-28T16:39:29;12.25;;;2.45;;
66139;SDS011;52945;51.908;8.364;2022-10-28T16:42:29;5.95;;;2.10;;
66139;SDS011;52945;51.908;8.364;2022-10-28T16:45:30;5.70;;;2.38;;
66139;SDS011;52945;51.908;8.364;2022-10-28T16:48:31;7.22;;;2.17;;
66139;SDS011;52945;51.908;8.364;2022-10-28T16:51:32;6.80;;;2.10;;
66139;SDS011;52945;51.908;8.364;2022-10-28T16:54:32;10.45;;;2.45;;
66139;SDS011;52945;51.908;8.364;2022-10-28T16:57:33;7.63;;;2.42;;
66139;SDS011;52945;51.908;8.364;2022-10-28T17:00:34;8.82;;;2.25;;
66139;SDS011;52945;51.908;8.364;2022-10-28T17:03:35;7.47;;;2.42;;
66139;SDS011;52945;51.908;8.364;2022-10-28T17:06:36;9.45;;;2.30;;
66139;SDS011;52945;51.908;8.364;2022-10-28T17:09:36;6.07;;;2.13;;
66139;SDS011;52945;51.908;8.364;2022-10-28T17:12:37;9.82;;;2.30;;
66139;SDS011;52945;51.908;8.364;2022-10-28T17:15:38;7.85;;;2.38;;
66139;SDS011;52945;51.908;8.364;2022-10-28T17:18:39;5.30;;;2.40;;
66139;SDS011;52945;51.908;8.364;2022-10-28T17:21:41;5.60;;;1.92;;
66139;SDS011;52945;51.908;8.364;2022-10-28T17:24:42;6.57;;;2.85;;
66139;SDS011;52945;51.908;8.364;2022-10-28T17:27:42;7.15;;;2.50;;
66139;SDS011;52945;51.908;8.364;2022-10-28T17:30:47;11.70;;;2.78;;
66139;SDS011;52945;51.908;8.364;2022-10-28T17:33:51;10.38;;;2.70;;
66139;SDS011;52945;51.908;8.364;2022-10-28T17:36:52;8.95;;;2.38;;
66139;SDS011;52945;51.908;8.364;2022-10-28T17:39:53;5.95;;;2.50;;
66139;SDS011;52945;51.908;8.364;2022-10-28T17:42:56;4.93;;;2.25;;
66139;SDS011;52945;51.908;8.364;2022-10-28T17:46:03;7.35;;;2.53;;
66139;SDS011;52945;51.908;8.364;2022-10-28T17:49:05;8.50;;;2.92;;
66139;SDS011;52945;51.908;8.364;2022-10-28T17:52:07;5.95;;;2.30;;
66139;SDS011;52945;51.908;8.364;2022-10-28T17:55:08;9.10;;;2.58;;
66139;SDS011;52945;51.908;8.364;2022-10-28T17:58:09;10.90;;;2.90;;
66139;SDS011;52945;51.908;8.364;2022-10-28T18:01:10;6.82;;;2.63;;
66139;SDS011;52945;51.908;8.364;2022-10-28T18:04:12;8.93;;;2.95;;
66139;SDS011;52945;51.908;8.364;2022-10-28T18:07:12;6.90;;;2.80;;
66139;SDS011;52945;51.908;8.364;2022-10-28T18:10:13;6.97;;;2.55;;
66139;SDS011;52945;51.908;8.364;2022-10-28T18:13:15;8.50;;;3.13;;
66139;SDS011;52945;51.908;8.364;2022-10-28T18:16:17;9.25;;;2.92;;
66139;SDS011;52945;51.908;8.364;2022-10-28T18:19:19;7.55;;;2.95;;
66139;SDS011;52945;51.908;8.364;2022-10-28T18:22:20;11.15;;;2.78;;
66139;SDS011;52945;51.908;8.364;2022-10-28T18:25:20;7.10;;;2.80;;
66139;SDS011;52945;51.908;8.364;2022-10-28T18:28:21;8.95;;;3.13;;
66139;SDS011;52945;51.908;8.364;2022-10-28T18:31:22;11.25;;;3.00;;
66139;SDS011;52945;51.908;8.364;2022-10-28T18:34:23;8.38;;;2.97;;
66139;SDS011;52945;51.908;8.364;2022-10-28T18:37:23;8.65;;;3.08;;
66139;SDS011;52945;51.908;8.364;2022-10-28T18:40:26;8.73;;;2.60;;
66139;SDS011;52945;51.908;8.364;2022-10-28T18:43:27;6.30;;;3.78;;
66139;SDS011;52945;51.908;8.364;2022-10-28T18:46:28;7.72;;;2.97;;
66139;SDS011;52945;51.908;8.364;2022-10-28T18:49:32;5.38;;;2.88;;
66139;SDS011;52945;51.908;8.364;2022-10-28T18:52:32;7.32;;;2.85;;
66139;SDS011;52945;51.908;8.364;2022-10-28T18:55:33;9.05;;;3.78;;
66139;SDS011;52945;51.908;8.364;2022-10-28T18:58:33;11.65;;;3.70;;
66139;SDS011;52945;51.908;8.364;2022-10-28T19:01:35;8.57;;;3.05;;
66139;SDS011;52945;51.908;8.364;2022-10-28T19:04:36;11.55;;;3.15;;
66139;SDS011;52945;51.908;8.364;2022-10-28T19:07:36;7.03;;;3.10;;
66139;SDS011;52945;51.908;8.364;2022-10-28T19:10:37;7.47;;;3.08;;
66139;SDS011;52945;51.908;8.364;2022-10-28T19:13:38;12.95;;;3.83;;
66139;SDS011;52945;51.908;8.364;2022-10-28T19:16:41;9.48;;;3.45;;
66139;SDS011;52945;51.908;8.364;2022-10-28T19:19:41;11.73;;;3.35;;
66139;SDS011;52945;51.908;8.364;2022-10-28T19:22:42;9.60;;;3.60;;
66139;SDS011;52945;51.908;8.364;2022-10-28T19:25:51;11.65;;;3.70;;
66139;SDS011;52945;51.908;8.364;2022-10-28T19:28:53;14.05;;;3.90;;
66139;SDS011;52945;51.908;8.364;2022-10-28T19:31:53;9.90;;;3.60;;
66139;SDS011;52945;51.908;8.364;2022-10-28T19:34:54;8.40;;;3.53;;
66139;SDS011;52945;51.908;8.364;2022-10-28T19:37:54;9.13;;;3.33;;
66139;SDS011;52945;51.908;8.364;2022-10-28T19:40:59;9.60;;;3.30;;
66139;SDS011;52945;51.908;8.364;2022-10-28T19:44:04;11.07;;;3.55;;
66139;SDS011;52945;51.908;8.364;2022-10-28T19:47:05;11.57;;;3.83;;
66139;SDS011;52945;51.908;8.364;2022-10-28T19:50:06;9.25;;;3.90;;
66139;SDS011;52945;51.908;8.364;2022-10-28T19:53:07;9.90;;;3.78;;
66139;SDS011;52945;51.908;8.364;2022-10-28T19:56:07;7.60;;;3.28;;
66139;SDS011;52945;51.908;8.364;2022-10-28T19:59:08;10.15;;;3.58;;
66139;SDS011;52945;51.908;8.364;2022-10-28T20:02:09;10.77;;;3.63;;
66139;SDS011;52945;51.908;8.364;2022-10-28T20:05:10;7.55;;;3.47;;
66139;SDS011;52945;51.908;8.364;2022-10-28T20:08:11;7.90;;;3.75;;
66139;SDS011;52945;51.908;8.364;2022-10-28T20:11:12;8.73;;;3.22;;
66139;SDS011;52945;51.908;8.364;2022-10-28T20:14:14;7.65;;;3.45;;
66139;SDS011;52945;51.908;8.364;2022-10-28T20:17:15;8.70;;;3.75;;
66139;SDS011;52945;51.908;8.364;2022-10-28T20:20:16;9.77;;;3.63;;
66139;SDS011;52945;51.908;8.364;2022-10-28T20:23:16;10.68;;;3.75;;
66139;SDS011;52945;51.908;8.364;2022-10-28T20:26:17;11.68;;;3.90;;
66139;SDS011;52945;51.908;8.364;2022-10-28T20:29:18;9.98;;;4.13;;
66139;SDS011;52945;51.908;8.364;2022-10-28T20:32:19;12.18;;;3.80;;
66139;SDS011;52945;51.908;8.364;2022-10-28T20:35:21;11.15;;;4.10;;
66139;SDS011;52945;51.908;8.364;2022-10-28T20:38:22;9.30;;;4.00;;
66139;SDS011;52945;51.908;8.364;2022-10-28T20:41:24;9.93;;;3.97;;
66139;SDS011;52945;51.908;8.364;2022-10-28T20:44:27;10.55;;;3.90;;
66139;SDS011;52945;51.908;8.364;2022-10-28T20:47:27;11.43;;;3.42;;
66139;SDS011;52945;51.908;8.364;2022-10-28T20:50:28;8.52;;;3.83;;
66139;SDS011;52945;51.908;8.364;2022-10-28T20:53:33;10.95;;;3.92;;
66139;SDS011;52945;51.908;8.364;2022-10-28T20:56:34;10.52;;;3.50;;
66139;SDS011;52945;51.908;8.364;2022-10-28T20:59:36;6.57;;;3.38;;
66139;SDS011;52945;51.908;8.364;2022-10-28T21:02:37;8.57;;;3.78;;
66139;SDS011;52945;51.908;8.364;2022-10-28T21:05:38;7.75;;;3.53;;
66139;SDS011;52945;51.908;8.364;2022-10-28T21:08:39;11.70;;;3.97;;
66139;SDS011;52945;51.908;8.364;2022-10-28T21:11:40;9.35;;;3.80;;
66139;SDS011;52945;51.908;8.364;2022-10-28T21:14:44;12.80;;;3.92;;
66139;SDS011;52945;51.908;8.364;2022-10-28T21:17:44;9.50;;;4.35;;
66139;SDS011;52945;51.908;8.364;2022-10-28T21:20:45;9.73;;;3.75;;
66139;SDS011;52945;51.908;8.364;2022-10-28T21:23:46;13.80;;;4.53;;
66139;SDS011;52945;51.908;8.364;2022-10-28T21:26:46;7.25;;;3.72;;
66139;SDS011;52945;51.908;8.364;2022-10-28T21:29:47;7.63;;;3.40;;
66139;SDS011;52945;51.908;8.364;2022-10-28T21:32:48;9.15;;;3.20;;
66139;SDS011;52945;51.908;8.364;2022-10-28T21:35:59;7.75;;;3.85;;
66139;SDS011;52945;51.908;8.364;2022-10-28T21:39:01;9.65;;;3.78;;
66139;SDS011;52945;51.908;8.364;2022-10-28T21:42:01;7.60;;;3.80;;
66139;SDS011;52945;51.908;8.364;2022-10-28T21:45:02;9.10;;;3.72;;
66139;SDS011;52945;51.908;8.364;2022-10-28T21:48:03;7.65;;;3.75;;
66139;SDS011;52945;51.908;8.364;2022-10-28T21:51:05;8.63;;;3.70;;
66139;SDS011;52945;51.908;8.364;2022-10-28T21:54:07;9.82;;;3.40;;
66139;SDS011;52945;51.908;8.364;2022-10-28T21:57:08;10.25;;;4.28;;
66139;SDS011;52945;51.908;8.364;2022-10-28T22:00:09;9.20;;;4.30;;
66139;SDS011;52945;51.908;8.364;2022-10-28T22:03:10;12.18;;;4.20;;
66139;SDS011;52945;51.908;8.364;2022-10-28T22:06:12;10.30;;;3.70;;
66139;SDS011;52945;51.908;8.364;2022-10-28T22:09:12;9.70;;;3.65;;
66139;SDS011;52945;51.908;8.364;2022-10-28T22:12:13;10.93;;;4.10;;
66139;SDS011;52945;51.908;8.364;2022-10-28T22:15:14;11.38;;;4.03;;
66139;SDS011;52945;51.908;8.364;2022-10-28T22:18:14;9.60;;;3.95;;
66139;SDS011;52945;51.908;8.364;2022-10-28T22:21:16;10.73;;;3.78;;
66139;SDS011;52945;51.908;8.364;2022-10-28T22:24:18;10.43;;;3.83;;
66139;SDS011;52945;51.908;8.364;2022-10-28T22:27:19;10.15;;;3.35;;
66139;SDS011;52945;51.908;8.364;2022-10-28T22:30:19;7.40;;;3.47;;
66139;SDS011;52945;51.908;8.364;2022-10-28T22:33:20;8.32;;;4.05;;
66139;SDS011;52945;51.908;8.364;2022-10-28T22:36:21;8.88;;;3.70;;
66139;SDS011;52945;51.908;8.364;2022-10-28T22:39:23;9.15;;;3.97;;
66139;SDS011;52945;51.908;8.364;2022-10-28T22:42:23;9.40;;;3.75;;
66139;SDS011;52945;51.908;8.364;2022-10-28T22:45:24;10.38;;;4.05;;
66139;SDS011;52945;51.908;8.364;2022-10-28T22:48:25;10.00;;;3.92;;
66139;SDS011;52945;51.908;8.364;2022-10-28T22:51:26;12.93;;;4.03;;
66139;SDS011;52945;51.908;8.364;2022-10-28T22:54:27;10.48;;;4.03;;
66139;SDS011;52945;51.908;8.364;2022-10-28T22:57:27;12.77;;;4.30;;
66139;SDS011;52945;51.908;8.364;2022-10-28T23:00:28;9.05;;;4.32;;
66139;SDS011;52945;51.908;8.364;2022-10-28T23:06:33;13.13;;;4.18;;
66139;SDS011;52945;51.908;8.364;2022-10-28T23:09:33;14.43;;;4.03;;
66139;SDS011;52945;51.908;8.364;2022-10-28T23:12:34;14.80;;;4.15;;
66139;SDS011;52945;51.908;8.364;2022-10-28T23:15:34;15.82;;;4.30;;
66139;SDS011;52945;51.908;8.364;2022-10-28T23:18:35;7.18;;;3.60;;
66139;SDS011;52945;51.908;8.364;2022-10-28T23:21:36;12.32;;;3.80;;
66139;SDS011;52945;51.908;8.364;2022-10-28T23:24:37;9.38;;;4.78;;
66139;SDS011;52945;51.908;8.364;2022-10-28T23:30:39;8.77;;;3.70;;
66139;SDS011;52945;51.908;8.364;2022-10-28T23:33:39;11.77;;;4.00;;
66139;SDS011;52945;51.908;8.364;2022-10-28T23:36:40;9.63;;;3.85;;
66139;SDS011;52945;51.908;8.364;2022-10-28T23:39:40;12.95;;;4.10;;
66139;SDS011;52945;51.908;8.364;2022-10-28T23:42:41;10.45;;;4.07;;
66139;SDS011;52945;51.908;8.364;2022-10-28T23:45:41;9.88;;;4.03;;
66139;SDS011;52945;51.908;8.364;2022-10-28T23:48:42;9.50;;;3.63;;
66139;SDS011;52945;51.908;8.364;2022-10-28T23:51:43;8.48;;;4.15;;
66139;SDS011;52945;51.908;8.364;2022-10-28T23:57:44;9.88;;;3.78;;
